Time;durP1;ratioP1;P1;durP2;ratioP2;P2;SDS_P1;SDS_P2;PMS_P1;PMS_P2;Temp;Humidity;BMP_temperature;BMP_pressure;BME280_temperature;BME280_humidity;BME280_pressure;Samples;Min_cycle;Max_cycle;Signal;HPM_P1;HPM_P2
2022/05/03 00:00:36;;;;;;;;;;;6.20;86.60;;;;;;6130631;23;19917;-73
2022/05/03 00:03:13;;;;;;;;;;;6.20;86.80;;;;;;6130627;23;19920;-74
2022/05/03 00:05:44;;;;;;;;;;;6.20;87.00;;;;;;6106213;23;19917;-75
2022/05/03 00:08:22;;;;;;;;;;;6.20;87.20;;;;;;6130493;23;19927;-74
2022/05/03 00:11:11;;;;;;;;;;;6.20;87.10;;;;;;6130436;23;19970;-73
2022/05/03 00:13:43;;;;;;;;;;;6.10;86.80;;;;;;6063192;23;20348;-75
2022/05/03 00:16:09;;;;;;;;;;;6.10;87.70;;;;;;6130008;23;20039;-74
2022/05/03 00:18:35;;;;;;;;;;;6.10;87.60;;;;;;6130680;23;20334;-75
2022/05/03 00:21:01;;;;;;;;;;;6.10;87.50;;;;;;6106241;23;20003;-74
2022/05/03 00:23:27;;;;;;;;;;;6.10;87.50;;;;;;6130608;23;19917;-75
2022/05/03 00:25:54;;;;;;;;;;;6.10;87.80;;;;;;6130475;23;19916;-74
2022/05/03 00:28:19;;;;;;;;;;;6.10;87.90;;;;;;6130439;23;19924;-74
2022/05/03 00:30:46;;;;;;;;;;;6.10;89.30;;;;;;6130458;23;19974;-74
2022/05/03 00:33:13;;;;;;;;;;;6.00;88.00;;;;;;6105800;23;20512;-75
2022/05/03 00:35:39;;;;;;;;;;;6.00;88.40;;;;;;6130444;23;19921;-75
2022/05/03 00:38:04;;;;;;;;;;;6.00;88.00;;;;;;6129335;23;20220;-73
2022/05/03 00:40:32;;;;;;;;;;;6.00;88.70;;;;;;6129626;23;19975;-74
2022/05/03 00:43:04;;;;;;;;;;;6.00;88.70;;;;;;6105873;23;19951;-72
2022/05/03 00:45:30;;;;;;;;;;;6.00;87.90;;;;;;6138043;23;19917;-71
2022/05/03 00:48:06;;;;;;;;;;;6.00;88.90;;;;;;6138506;23;19916;-75
2022/05/03 00:50:32;;;;;;;;;;;6.00;88.90;;;;;;6132750;23;19916;-73
2022/05/03 00:53:01;;;;;;;;;;;6.00;88.50;;;;;;6132389;23;20289;-75
2022/05/03 00:55:46;;;;;;;;;;;6.00;88.10;;;;;;6108013;23;19924;-74
2022/05/03 00:58:30;;;;;;;;;;;6.00;87.50;;;;;;6132304;23;19939;-75
2022/05/03 01:01:01;;;;;;;;;;;6.00;88.70;;;;;;6131761;23;20243;-74
2022/05/03 01:03:47;;;;;;;;;;;6.00;88.30;;;;;;6108157;23;19959;-74
2022/05/03 01:06:25;;;;;;;;;;;5.90;88.10;;;;;;6130826;23;19923;-76
2022/05/03 01:09:00;;;;;;;;;;;5.90;89.20;;;;;;6132404;23;19921;-75
2022/05/03 01:11:33;;;;;;;;;;;6.00;89.10;;;;;;6132326;23;19996;-76
2022/05/03 01:14:03;;;;;;;;;;;5.90;89.70;;;;;;6107924;23;20031;-75
2022/05/03 01:16:33;;;;;;;;;;;5.90;88.70;;;;;;6107562;23;20312;-74
2022/05/03 01:18:59;;;;;;;;;;;5.90;89.10;;;;;;6131902;23;19916;-76
2022/05/03 01:21:45;;;;;;;;;;;5.90;89.70;;;;;;6131977;23;19971;-74
2022/05/03 01:24:13;;;;;;;;;;;5.90;90.00;;;;;;6132128;23;20366;-74
2022/05/03 01:26:48;;;;;;;;;;;6.00;90.20;;;;;;6131976;23;19916;-74
2022/05/03 01:29:27;;;;;;;;;;;6.10;90.00;;;;;;6131618;23;19916;-74
2022/05/03 01:31:56;;;;;;;;;;;6.10;90.10;;;;;;6107466;23;19923;-74
2022/05/03 01:34:23;;;;;;;;;;;6.20;90.60;;;;;;6105554;23;19916;-74
2022/05/03 01:37:02;;;;;;;;;;;6.20;90.40;;;;;;6107197;23;20274;-75
2022/05/03 01:39:33;;;;;;;;;;;6.30;90.30;;;;;;6131581;23;19912;-74
2022/05/03 01:42:19;;;;;;;;;;;6.40;90.20;;;;;;6131691;23;19924;-75
2022/05/03 01:45:04;;;;;;;;;;;6.40;90.30;;;;;;6130829;23;19932;-74
2022/05/03 01:47:35;;;;;;;;;;;6.40;90.60;;;;;;6130240;23;20002;-75
2022/05/03 01:50:19;;;;;;;;;;;6.50;90.30;;;;;;6157936;23;19917;-75
2022/05/03 01:52:57;;;;;;;;;;;6.60;90.40;;;;;;6131616;23;20366;-74
2022/05/03 01:55:46;;;;;;;;;;;6.60;90.20;;;;;;6131614;23;19971;-75
2022/05/03 01:58:29;;;;;;;;;;;6.70;90.40;;;;;;6106572;23;20346;-74
2022/05/03 02:01:13;;;;;;;;;;;6.80;90.10;;;;;;6107335;23;19916;-74
2022/05/03 02:03:49;;;;;;;;;;;6.80;89.90;;;;;;6131920;23;19924;-74
2022/05/03 02:06:15;;;;;;;;;;;6.90;90.10;;;;;;6107209;23;19917;-74
2022/05/03 02:08:50;;;;;;;;;;;7.00;89.40;;;;;;6131803;23;19917;-74
2022/05/03 02:11:19;;;;;;;;;;;7.00;90.50;;;;;;6138078;23;19917;-71
2022/05/03 02:16:48;;;;;;;;;;;7.20;91.30;;;;;;6131793;23;19923;-75
2022/05/03 02:19:32;;;;;;;;;;;7.20;90.40;;;;;;6131675;23;20017;-75
2022/05/03 02:22:16;;;;;;;;;;;7.30;89.40;;;;;;6131156;23;19924;-74
2022/05/03 02:24:42;;;;;;;;;;;7.30;90.10;;;;;;6131561;23;19916;-77
2022/05/03 02:27:09;;;;;;;;;;;7.40;90.00;;;;;;6131536;23;20268;-74
2022/05/03 02:29:48;;;;;;;;;;;7.40;90.20;;;;;;6131697;23;20315;-75
2022/05/03 02:32:33;;;;;;;;;;;7.50;90.10;;;;;;6106782;23;19916;-75
2022/05/03 02:35:01;;;;;;;;;;;7.60;90.10;;;;;;6131217;23;19991;-76
2022/05/03 02:37:38;;;;;;;;;;;7.60;89.00;;;;;;6106778;23;19916;-75
2022/05/03 02:40:08;;;;;;;;;;;7.70;89.50;;;;;;6106147;23;19919;-75
2022/05/03 02:42:34;;;;;;;;;;;7.70;89.00;;;;;;6130984;23;19916;-75
2022/05/03 02:45:01;;;;;;;;;;;7.70;89.80;;;;;;6130563;23;19971;-74
2022/05/03 02:47:29;;;;;;;;;;;7.80;89.40;;;;;;6131145;23;19924;-74
2022/05/03 02:49:58;;;;;;;;;;;7.80;89.30;;;;;;6130358;23;19917;-74
2022/05/03 02:52:27;;;;;;;;;;;7.90;89.10;;;;;;6131096;23;19987;-74
2022/05/03 02:55:08;;;;;;;;;;;7.90;89.00;;;;;;6105673;23;19939;-74
2022/05/03 02:57:42;;;;;;;;;;;7.90;89.60;;;;;;6129518;23;19913;-75
2022/05/03 03:02:59;;;;;;;;;;;8.00;88.00;;;;;;6131050;23;19917;-74
2022/05/03 03:05:26;;;;;;;;;;;8.00;89.10;;;;;;6130442;23;19916;-75
2022/05/03 03:08:01;;;;;;;;;;;8.00;88.80;;;;;;6131103;23;19920;-74
2022/05/03 03:10:45;;;;;;;;;;;8.10;88.70;;;;;;6131122;23;19916;-73
2022/05/03 03:13:23;;;;;;;;;;;8.10;90.00;;;;;;6130675;23;19948;-74
2022/05/03 03:15:51;;;;;;;;;;;8.10;89.90;;;;;;6131061;23;20013;-75
2022/05/03 03:18:19;;;;;;;;;;;8.20;88.80;;;;;;6106788;23;19964;-76
2022/05/03 03:20:45;;;;;;;;;;;8.20;90.00;;;;;;6131128;23;19917;-74
2022/05/03 03:23:15;;;;;;;;;;;8.20;90.00;;;;;;6107197;23;19927;-75
2022/05/03 03:25:43;;;;;;;;;;;8.20;89.10;;;;;;6106945;23;19971;-74
2022/05/03 03:28:11;;;;;;;;;;;8.20;89.30;;;;;;6107945;23;19963;-73
2022/05/03 03:30:38;;;;;;;;;;;8.30;90.10;;;;;;6150263;23;19905;-71
2022/05/03 03:33:06;;;;;;;;;;;8.30;90.40;;;;;;6155737;23;19952;-73
2022/05/03 03:35:32;;;;;;;;;;;8.30;90.20;;;;;;6151174;23;19920;-73
2022/05/03 03:38:01;;;;;;;;;;;8.30;90.20;;;;;;6153179;23;19901;-71
2022/05/03 03:40:26;;;;;;;;;;;8.30;89.70;;;;;;6113749;23;19927;-70
2022/05/03 03:42:53;;;;;;;;;;;8.40;89.60;;;;;;6132639;23;19939;-73
2022/05/03 03:45:19;;;;;;;;;;;8.40;89.40;;;;;;6105358;23;20204;-74
2022/05/03 03:47:46;;;;;;;;;;;8.40;90.30;;;;;;6130512;23;19916;-75
2022/05/03 03:50:12;;;;;;;;;;;8.50;90.20;;;;;;6106081;23;20043;-73
2022/05/03 03:52:38;;;;;;;;;;;8.50;90.10;;;;;;6130713;23;19948;-75
2022/05/03 03:55:04;;;;;;;;;;;8.50;90.40;;;;;;6106214;23;20271;-74
2022/05/03 03:57:30;;;;;;;;;;;8.50;90.10;;;;;;6106179;23;19983;-73
2022/05/03 03:59:57;;;;;;;;;;;8.50;90.10;;;;;;6106071;23;19916;-76
2022/05/03 04:02:23;;;;;;;;;;;8.60;89.50;;;;;;6106340;23;19917;-74
2022/05/03 04:04:49;;;;;;;;;;;8.60;89.50;;;;;;6106265;23;19916;-75
2022/05/03 04:07:15;;;;;;;;;;;8.60;90.20;;;;;;6105661;23;19968;-75
2022/05/03 04:09:40;;;;;;;;;;;8.60;90.30;;;;;;6154503;23;19924;-75
2022/05/03 04:12:06;;;;;;;;;;;8.70;90.20;;;;;;6155158;23;19921;-74
2022/05/03 04:14:32;;;;;;;;;;;8.70;90.40;;;;;;6105344;23;20311;-74
2022/05/03 04:16:58;;;;;;;;;;;8.70;90.30;;;;;;6129517;23;20276;-77
2022/05/03 04:19:23;;;;;;;;;;;8.70;90.00;;;;;;6105742;23;19992;-72
2022/05/03 04:21:49;;;;;;;;;;;8.70;90.20;;;;;;6129710;23;20010;-76
2022/05/03 04:24:15;;;;;;;;;;;8.80;90.50;;;;;;6130392;23;19921;-75
2022/05/03 04:26:41;;;;;;;;;;;8.80;90.50;;;;;;6129588;23;19987;-75
2022/05/03 04:29:07;;;;;;;;;;;8.80;90.30;;;;;;6130542;23;20208;-75
2022/05/03 04:31:33;;;;;;;;;;;8.80;90.00;;;;;;6106219;23;19916;-77
2022/05/03 04:34:02;;;;;;;;;;;8.90;90.00;;;;;;6106188;23;19916;-76
2022/05/03 04:36:29;;;;;;;;;;;8.90;90.70;;;;;;6105770;23;19923;-75
2022/05/03 04:38:55;;;;;;;;;;;9.00;88.70;;;;;;6130524;23;19917;-76
2022/05/03 04:41:21;;;;;;;;;;;9.10;91.00;;;;;;6104509;23;19928;-75
2022/05/03 04:43:47;;;;;;;;;;;9.20;90.70;;;;;;6105286;23;19934;-75
2022/05/03 04:46:12;;;;;;;;;;;9.10;90.50;;;;;;6155326;23;19912;-75
2022/05/03 04:48:38;;;;;;;;;;;9.20;90.40;;;;;;6130150;23;19983;-75
2022/05/03 04:51:04;;;;;;;;;;;9.10;90.00;;;;;;6130139;23;19912;-75
2022/05/03 04:53:29;;;;;;;;;;;9.10;90.30;;;;;;6104886;23;19944;-75
2022/05/03 04:55:55;;;;;;;;;;;9.10;90.20;;;;;;6105239;23;19938;-73
2022/05/03 04:58:21;;;;;;;;;;;9.20;90.20;;;;;;6105760;23;19923;-75
2022/05/03 05:00:46;;;;;;;;;;;9.20;90.00;;;;;;6130122;23;19912;-75
2022/05/03 05:03:13;;;;;;;;;;;9.40;91.30;;;;;;6136003;23;19917;-71
2022/05/03 05:05:38;;;;;;;;;;;9.40;90.90;;;;;;6138654;23;19912;-71
2022/05/03 05:08:16;;;;;;;;;;;9.40;91.20;;;;;;6131531;23;20343;-76
2022/05/03 05:10:57;;;;;;;;;;;9.40;91.70;;;;;;6130485;23;20232;-75
2022/05/03 05:13:22;;;;;;;;;;;9.50;91.70;;;;;;6130123;23;20007;-76
2022/05/03 05:15:49;;;;;;;;;;;9.50;91.80;;;;;;6154623;23;19916;-75
2022/05/03 05:18:16;;;;;;;;;;;9.60;91.50;;;;;;6105643;23;19983;-75
2022/05/03 05:20:47;;;;;;;;;;;9.60;92.50;;;;;;6105604;23;19935;-79
2022/05/03 05:23:22;;;;;;;;;;;9.50;92.00;;;;;;6129975;23;20235;-81
2022/05/03 05:25:51;;;;;;;;;;;9.60;92.30;;;;;;6130260;23;20235;-75
2022/05/03 05:28:18;;;;;;;;;;;9.60;91.90;;;;;;6130049;23;19924;-75
2022/05/03 05:30:44;;;;;;;;;;;9.60;91.60;;;;;;6130213;23;19920;-76
2022/05/03 05:33:10;;;;;;;;;;;9.60;90.90;;;;;;6106077;23;19979;-73
2022/05/03 05:36:13;;;;;;;;;;;9.70;91.30;;;;;;6131656;23;19917;-75
2022/05/03 05:39:04;;;;;;;;;;;9.70;90.50;;;;;;6131357;23;19924;-77
2022/05/03 07:34:10;;;;;;;;;;;10.10;84.10;;;;;;6014083;23;19980;-74
2022/05/03 07:36:36;;;;;;;;;;;10.10;82.60;;;;;;6015154;23;19950;-77
2022/05/03 07:39:02;;;;;;;;;;;10.20;82.60;;;;;;6130468;23;19912;-75
2022/05/03 07:41:28;;;;;;;;;;;10.20;82.60;;;;;;6156465;23;19917;-75
2022/05/03 07:43:53;;;;;;;;;;;10.20;81.50;;;;;;6130524;23;19924;-77
2022/05/03 07:46:24;;;;;;;;;;;10.30;80.30;;;;;;6130658;23;19928;-75
2022/05/03 07:48:56;;;;;;;;;;;10.30;80.80;;;;;;6107338;23;19943;-76
2022/05/03 07:55:18;;;;;;;;;;;;;;;;;;;;;
2022/05/03 07:58:02;;;;;;;;;;;10.70;79.30;;;;;;6028247;23;19964;-76
2022/05/03 08:00:31;;;;;;;;;;;10.90;77.80;;;;;;6133972;23;20386;-73
2022/05/03 08:02:57;;;;;;;;;;;10.90;77.00;;;;;;6112135;23;19940;-74
2022/05/03 08:05:23;;;;;;;;;;;11.00;77.60;;;;;;6131161;23;19920;-75
2022/05/03 08:07:49;;;;;;;;;;;11.00;74.80;;;;;;6105586;23;19931;-77
2022/05/03 08:10:15;;;;;;;;;;;11.00;75.00;;;;;;6105525;23;19912;-77
2022/05/03 08:12:40;;;;;;;;;;;11.10;75.80;;;;;;6130134;23;20255;-76
2022/05/03 08:15:12;;;;;;;;;;;11.20;73.70;;;;;;6130348;23;19940;-80
2022/05/03 08:17:39;;;;;;;;;;;11.30;74.80;;;;;;6129687;23;20374;-79
2022/05/03 08:20:23;;;;;;;;;;;11.30;73.50;;;;;;6103140;23;20268;-79
2022/05/03 08:23:07;;;;;;;;;;;11.30;73.50;;;;;;6128448;23;19923;-78
2022/05/03 08:25:37;;;;;;;;;;;11.40;72.30;;;;;;6103814;23;19960;-79
2022/05/03 08:28:21;;;;;;;;;;;11.40;71.40;;;;;;6120827;23;19920;-79
2022/05/03 08:30:55;;;;;;;;;;;11.50;72.10;;;;;;6130255;23;19934;-79
2022/05/03 08:33:24;;;;;;;;;;;11.60;71.20;;;;;;6113306;23;19947;-79
2022/05/03 08:35:49;;;;;;;;;;;11.60;71.10;;;;;;6105278;23;19970;-78
2022/05/03 08:44:16;;;;;;;;;;;11.80;69.70;;;;;;6130296;23;19920;-79
2022/05/03 08:46:59;;;;;;;;;;;;;;;;;;;;;
2022/05/03 08:49:44;;;;;;;;;;;11.70;69.10;;;;;;6128769;23;19912;-79
2022/05/03 08:52:17;;;;;;;;;;;11.80;69.70;;;;;;6130073;23;19912;-78
2022/05/03 08:58:22;;;;;;;;;;;11.70;69.30;;;;;;6138510;23;19901;-80
2022/05/03 09:01:20;;;;;;;;;;;11.80;69.30;;;;;;6160957;23;19925;-78
2022/05/03 09:04:16;;;;;;;;;;;11.70;69.40;;;;;;6134782;23;19905;-79
2022/05/03 09:06:48;;;;;;;;;;;11.80;68.60;;;;;;6158497;23;19909;-78
2022/05/03 09:09:53;;;;;;;;;;;11.70;69.00;;;;;;6101788;23;20220;-78
2022/05/03 09:12:44;;;;;;;;;;;;;;;;;;;;;
2022/05/03 09:15:53;;;;;;;;;;;12.00;66.90;;;;;;6132247;23;19923;-78
2022/05/03 09:18:29;;;;;;;;;;;12.20;67.40;;;;;;6106541;23;19916;-79
2022/05/03 09:24:18;;;;;;;;;;;;;;;;;;;;;
2022/05/03 09:26:50;;;;;;;;;;;12.20;65.30;;;;;;6148711;23;19913;-78
2022/05/03 09:29:16;;;;;;;;;;;12.30;64.10;;;;;;6125523;23;19935;-74
2022/05/03 09:31:52;;;;;;;;;;;12.20;64.30;;;;;;6125616;23;20305;-74
2022/05/03 09:34:33;;;;;;;;;;;12.20;64.70;;;;;;6142296;23;19924;-77
2022/05/03 09:37:17;;;;;;;;;;;;;;;;;;;;;
2022/05/03 09:39:47;;;;;;;;;;;12.50;66.00;;;;;;6130836;23;19944;-80
2022/05/03 09:42:19;;;;;;;;;;;12.60;63.80;;;;;;6131529;23;19916;-81
2022/05/03 09:48:34;;;;;;;;;;;12.50;62.30;;;;;;6157696;23;19920;-80
2022/05/03 09:51:16;;;;;;;;;;;12.50;62.20;;;;;;6108327;23;20323;-79
2022/05/03 09:53:42;;;;;;;;;;;12.30;62.80;;;;;;6131178;23;19919;-79
2022/05/03 09:56:28;;;;;;;;;;;12.40;62.30;;;;;;6131672;23;20338;-79
2022/05/03 09:59:29;;;;;;;;;;;12.40;61.40;;;;;;6087268;23;19983;-80
2022/05/03 10:02:07;;;;;;;;;;;12.40;60.20;;;;;;6131128;23;19999;-80
2022/05/03 10:04:38;;;;;;;;;;;12.40;58.80;;;;;;6107960;23;20313;-80
2022/05/03 10:07:27;;;;;;;;;;;12.40;59.40;;;;;;6139055;23;19912;-79
2022/05/03 10:10:02;;;;;;;;;;;12.30;58.90;;;;;;6128745;23;19913;-79
2022/05/03 10:12:30;;;;;;;;;;;12.30;59.10;;;;;;6107013;23;19912;-79
2022/05/03 10:15:03;;;;;;;;;;;12.30;58.00;;;;;;6130673;23;19912;-79
2022/05/03 10:23:48;;;;;;;;;;;12.90;58.20;;;;;;6157212;23;19913;-81
2022/05/03 10:26:22;;;;;;;;;;;12.90;57.50;;;;;;6129844;23;19919;-79
2022/05/03 10:29:11;;;;;;;;;;;13.00;57.10;;;;;;6127833;23;19936;-78
2022/05/03 10:32:19;;;;;;;;;;;13.00;56.40;;;;;;6094815;23;19913;-80
2022/05/03 10:34:59;;;;;;;;;;;13.10;56.20;;;;;;6093174;23;19916;-79
2022/05/03 10:38:00;;;;;;;;;;;12.80;56.70;;;;;;6151774;23;19921;-79
2022/05/03 10:40:43;;;;;;;;;;;12.70;57.90;;;;;;6133214;23;20228;-79
2022/05/03 10:43:27;;;;;;;;;;;12.60;57.40;;;;;;6132119;23;19919;-79
2022/05/03 10:46:15;;;;;;;;;;;12.80;58.50;;;;;;6127948;23;20378;-78
2022/05/03 10:48:46;;;;;;;;;;;12.80;57.00;;;;;;6105984;23;19916;-80
2022/05/03 10:51:46;;;;;;;;;;;12.80;57.50;;;;;;6130786;23;19920;-79
2022/05/03 10:54:19;;;;;;;;;;;13.00;57.00;;;;;;6107901;23;19919;-79
2022/05/03 10:57:03;;;;;;;;;;;13.00;57.60;;;;;;6079400;23;19913;-78
2022/05/03 10:59:47;;;;;;;;;;;13.00;57.10;;;;;;6085973;23;20386;-77
2022/05/03 11:02:23;;;;;;;;;;;13.00;56.80;;;;;;6064388;23;19917;-75
2022/05/03 11:05:07;;;;;;;;;;;13.10;56.90;;;;;;6065518;23;19960;-75
2022/05/03 11:10:48;;;;;;;;;;;13.00;58.00;;;;;;6095938;23;19964;-79
2022/05/03 11:13:33;;;;;;;;;;;12.90;56.90;;;;;;6040750;23;20229;-79
2022/05/03 11:16:23;;;;;;;;;;;13.10;56.40;;;;;;6047748;23;19921;-80
2022/05/03 11:18:57;;;;;;;;;;;13.10;57.00;;;;;;6048949;23;19917;-80
2022/05/03 11:21:45;;;;;;;;;;;13.10;56.30;;;;;;6048886;23;19931;-79
2022/05/03 11:24:18;;;;;;;;;;;13.20;57.40;;;;;;6071914;23;19917;-80
2022/05/03 11:26:50;;;;;;;;;;;13.20;55.90;;;;;;6077125;23;19969;-80
2022/05/03 11:29:19;;;;;;;;;;;13.40;55.70;;;;;;6107253;23;20304;-80
2022/05/03 11:31:50;;;;;;;;;;;13.20;56.80;;;;;;6106302;23;19913;-79
2022/05/03 11:34:29;;;;;;;;;;;13.40;56.50;;;;;;6106905;23;19916;-79
2022/05/03 11:37:01;;;;;;;;;;;13.60;55.80;;;;;;6107307;23;19968;-81
2022/05/03 11:39:41;;;;;;;;;;;13.50;54.90;;;;;;6107393;23;20047;-79
2022/05/03 11:42:18;;;;;;;;;;;13.40;55.30;;;;;;6131750;23;19916;-81
2022/05/03 11:44:47;;;;;;;;;;;13.30;55.20;;;;;;6107180;23;20323;-80
2022/05/03 11:47:22;;;;;;;;;;;13.40;55.50;;;;;;6157239;23;20329;-80
2022/05/03 11:49:56;;;;;;;;;;;13.30;55.70;;;;;;6129208;23;19980;-80
2022/05/03 11:58:04;;;;;;;;;;;13.30;55.80;;;;;;6130852;23;19913;-78
2022/05/03 12:00:45;;;;;;;;;;;13.30;55.90;;;;;;6130319;23;19951;-80
2022/05/03 12:03:15;;;;;;;;;;;13.50;55.80;;;;;;6106979;23;19967;-79
2022/05/03 12:06:07;;;;;;;;;;;13.50;56.80;;;;;;6105678;23;20275;-79
2022/05/03 12:08:33;;;;;;;;;;;13.60;55.90;;;;;;6131304;23;19912;-79
2022/05/03 12:11:28;;;;;;;;;;;13.50;53.80;;;;;;6106530;23;19916;-80
2022/05/03 12:14:02;;;;;;;;;;;13.30;53.90;;;;;;6114882;23;19912;-79
2022/05/03 12:16:33;;;;;;;;;;;13.20;55.10;;;;;;6130544;23;19913;-79
2022/05/03 12:19:26;;;;;;;;;;;13.30;55.50;;;;;;6130779;23;20216;-79
2022/05/03 12:22:06;;;;;;;;;;;13.30;54.60;;;;;;6083774;23;20196;-79
2022/05/03 12:24:48;;;;;;;;;;;13.60;54.70;;;;;;6128878;23;19916;-79
2022/05/03 12:27:32;;;;;;;;;;;13.40;54.50;;;;;;6134269;23;19912;-80
2022/05/03 12:30:13;;;;;;;;;;;13.20;54.30;;;;;;6143718;23;19917;-79
2022/05/03 12:32:38;;;;;;;;;;;13.30;55.10;;;;;;6145075;23;19913;-74
2022/05/03 12:35:05;;;;;;;;;;;13.30;53.50;;;;;;6121951;23;19923;-75
2022/05/03 12:37:31;;;;;;;;;;;13.20;55.00;;;;;;6169470;23;19946;-77
2022/05/03 12:40:03;;;;;;;;;;;13.30;54.00;;;;;;6130739;23;19913;-81
2022/05/03 12:42:45;;;;;;;;;;;13.40;54.30;;;;;;6130194;23;20003;-79
2022/05/03 12:45:19;;;;;;;;;;;13.40;53.30;;;;;;6108172;23;19916;-79
2022/05/03 12:47:54;;;;;;;;;;;13.30;52.40;;;;;;6108676;23;19948;-79
2022/05/03 12:50:25;;;;;;;;;;;13.30;53.70;;;;;;6131299;23;19924;-81
2022/05/03 12:53:00;;;;;;;;;;;13.50;53.30;;;;;;6109159;23;19921;-79
2022/05/03 12:55:26;;;;;;;;;;;13.60;53.90;;;;;;6108227;23;19917;-82
2022/05/03 13:00:39;;;;;;;;;;;13.40;53.10;;;;;;6158827;23;20274;-79
2022/05/03 13:03:10;;;;;;;;;;;13.40;52.90;;;;;;6132237;23;19983;-79
2022/05/03 13:05:38;;;;;;;;;;;13.40;53.20;;;;;;6106799;23;19944;-80
2022/05/03 13:08:07;;;;;;;;;;;13.30;53.10;;;;;;6107570;23;19919;-79
2022/05/03 13:10:40;;;;;;;;;;;13.60;53.90;;;;;;6132407;23;20291;-78
2022/05/03 13:13:06;;;;;;;;;;;13.80;53.20;;;;;;6132816;23;19920;-79
2022/05/03 13:15:35;;;;;;;;;;;13.90;52.30;;;;;;6132135;23;20208;-78
2022/05/03 13:18:09;;;;;;;;;;;14.00;53.10;;;;;;6107307;23;20316;-80
2022/05/03 13:20:42;;;;;;;;;;;13.90;50.30;;;;;;6106428;23;19913;-78
2022/05/03 13:23:07;;;;;;;;;;;13.90;51.80;;;;;;6132689;23;19913;-80
2022/05/03 13:25:35;;;;;;;;;;;13.60;51.80;;;;;;6132430;23;19963;-79
2022/05/03 13:28:01;;;;;;;;;;;13.50;52.10;;;;;;6107710;23;19912;-79
2022/05/03 13:30:27;;;;;;;;;;;13.40;51.90;;;;;;6108342;23;19913;-77
2022/05/03 13:32:53;;;;;;;;;;;13.60;51.20;;;;;;6107722;23;20234;-81
2022/05/03 13:43:46;;;;;;;;;;;13.20;52.40;;;;;;6132172;23;19912;-79
2022/05/03 13:46:17;;;;;;;;;;;13.10;51.90;;;;;;6107455;23;19992;-78
2022/05/03 13:48:56;;;;;;;;;;;13.00;51.80;;;;;;6157964;23;20217;-80
2022/05/03 13:51:27;;;;;;;;;;;13.00;53.80;;;;;;6107498;23;20001;-78
2022/05/03 13:54:04;;;;;;;;;;;13.00;53.30;;;;;;6131535;23;19919;-79
2022/05/03 13:56:33;;;;;;;;;;;13.00;53.20;;;;;;6132105;23;19917;-79
2022/05/03 13:59:05;;;;;;;;;;;13.30;52.20;;;;;;6108362;23;19920;-78
2022/05/03 14:01:38;;;;;;;;;;;13.50;52.10;;;;;;6148268;23;19991;-78
2022/05/03 14:04:13;;;;;;;;;;;13.40;51.30;;;;;;6148704;23;19919;-73
2022/05/03 14:06:51;;;;;;;;;;;13.50;52.80;;;;;;6124954;23;19957;-73
2022/05/03 14:09:32;;;;;;;;;;;13.60;51.90;;;;;;6145475;23;20327;-78
2022/05/03 14:12:03;;;;;;;;;;;13.70;52.60;;;;;;6131580;23;19912;-79
2022/05/03 14:14:35;;;;;;;;;;;13.70;52.30;;;;;;6131477;23;19913;-78
2022/05/03 14:17:05;;;;;;;;;;;13.70;52.20;;;;;;6131235;23;19924;-79
2022/05/03 14:19:33;;;;;;;;;;;13.60;52.80;;;;;;6106629;23;19916;-79
2022/05/03 14:22:01;;;;;;;;;;;13.50;53.10;;;;;;6106521;23;19920;-78
2022/05/03 14:24:31;;;;;;;;;;;13.40;51.50;;;;;;6131784;23;19919;-79
2022/05/03 14:27:08;;;;;;;;;;;13.40;51.90;;;;;;6106898;23;20224;-78
2022/05/03 14:29:42;;;;;;;;;;;13.40;51.90;;;;;;6107907;23;19919;-78
2022/05/03 14:32:13;;;;;;;;;;;13.50;52.50;;;;;;6085376;23;19916;-80
2022/05/03 14:34:48;;;;;;;;;;;13.40;51.60;;;;;;6104994;23;19924;-76
2022/05/03 14:37:33;;;;;;;;;;;13.60;53.20;;;;;;6145593;23;19919;-79
2022/05/03 14:40:07;;;;;;;;;;;13.60;51.30;;;;;;6134005;23;19916;-78
2022/05/03 14:42:41;;;;;;;;;;;13.40;51.40;;;;;;6112289;23;19944;-79
2022/05/03 14:45:13;;;;;;;;;;;13.20;51.70;;;;;;6159691;23;19932;-78
2022/05/03 14:47:38;;;;;;;;;;;13.40;52.80;;;;;;6137197;23;20270;-78
2022/05/03 14:50:07;;;;;;;;;;;13.50;52.00;;;;;;6108140;23;20003;-79
2022/05/03 14:52:37;;;;;;;;;;;13.60;51.60;;;;;;6108813;23;19940;-77
2022/05/03 14:55:09;;;;;;;;;;;13.50;51.90;;;;;;6107750;23;20239;-79
2022/05/03 15:02:52;;;;;;;;;;;13.60;52.00;;;;;;6131524;23;19936;-80
2022/05/03 15:03:25;;;;;;;;;;;13.50;51.10;;;;;;6130598;23;19952;-78
2022/05/03 15:05:51;;;;;;;;;;;13.10;53.10;;;;;;6128975;23;19923;-72
2022/05/03 15:08:19;;;;;;;;;;;13.00;53.20;;;;;;6129998;23;19913;-75
2022/05/03 15:10:45;;;;;;;;;;;12.90;54.10;;;;;;6130831;23;20374;-76
2022/05/03 15:13:12;;;;;;;;;;;12.80;52.90;;;;;;6139389;23;19955;-75
2022/05/03 15:15:50;;;;;;;;;;;12.50;55.10;;;;;;6156947;23;19995;-76
2022/05/03 15:18:27;;;;;;;;;;;12.50;54.70;;;;;;6105297;23;20209;-75
2022/05/03 15:21:14;;;;;;;;;;;12.50;56.30;;;;;;6130286;23;19924;-78
2022/05/03 15:26:46;;;;;;;;;;;12.20;55.20;;;;;;6130498;23;20011;-76
2022/05/03 15:29:15;;;;;;;;;;;12.40;55.90;;;;;;6107799;23;20338;-75
2022/05/03 15:31:43;;;;;;;;;;;12.40;55.10;;;;;;6131066;23;20011;-75
2022/05/03 15:34:12;;;;;;;;;;;12.40;54.10;;;;;;6081949;23;20256;-75
2022/05/03 15:50:16;;;;;;;;;;;11.80;56.30;;;;;;6095200;23;19912;-76
2022/05/03 15:52:51;;;;;;;;;;;11.90;55.80;;;;;;6048537;23;19913;-77
2022/05/03 15:55:17;;;;;;;;;;;12.10;55.10;;;;;;6116066;23;19963;-74
2022/05/03 15:57:43;;;;;;;;;;;12.10;54.80;;;;;;6128597;23;19913;-75
2022/05/03 16:00:13;;;;;;;;;;;11.90;54.70;;;;;;6130541;23;19913;-77
2022/05/03 16:02:41;;;;;;;;;;;11.90;55.20;;;;;;6205259;23;19940;-77
2022/05/03 16:05:25;;;;;;;;;;;11.80;54.10;;;;;;6185632;23;19951;-78
2022/05/03 16:11:22;;;;;;;;;;;11.90;54.70;;;;;;6124343;23;19934;-76
2022/05/03 16:13:57;;;;;;;;;;;11.80;55.30;;;;;;6059815;23;19944;-77
2022/05/03 16:30:20;;;;;;;;;;;11.10;58.40;;;;;;6033991;23;20333;-74
2022/05/03 16:32:46;;;;;;;;;;;11.10;59.00;;;;;;6018753;23;19966;-79
2022/05/03 16:42:12;;;;;;;;;;;11.00;58.50;;;;;;6070600;23;19921;-76
2022/05/03 16:48:51;;;;;;;;;;;;;;;;;;;;;
2022/05/03 16:51:25;;;;;;;;;;;10.90;58.80;;;;;;6100987;23;19960;-75
2022/05/03 16:54:00;;;;;;;;;;;10.80;58.80;;;;;;6050789;23;20387;-80
2022/05/03 17:29:32;;;;;;;;;;;10.20;59.60;;;;;;6169285;23;19994;31
2022/05/03 17:32:38;;;;;;;;;;;10.20;59.70;;;;;;6155785;23;19987;-77
2022/05/03 17:56:14;;;;;;;;;;;9.80;60.90;;;;;;6067944;23;19980;-81
2022/05/03 18:29:31;;;;;;;;;;;9.40;61.60;;;;;;6185797;22;19916;-79
2022/05/03 19:31:47;;;;;;;;;;;9.00;65.20;;;;;;6215793;23;19924;-76
2022/05/03 19:52:36;;;;;;;;;;;;;;;;;;;;;
2022/05/03 21:39:31;;;;;;;;;;;8.50;66.90;;;;;;6186248;23;19905;-75
2022/05/03 21:41:57;;;;;;;;;;;8.50;66.80;;;;;;6160175;23;19928;-74
2022/05/03 21:44:22;;;;;;;;;;;8.60;66.90;;;;;;6135785;23;19928;-75
2022/05/03 21:46:48;;;;;;;;;;;8.50;67.20;;;;;;6154982;23;19970;-74
2022/05/03 21:49:13;;;;;;;;;;;8.50;66.90;;;;;;6107498;23;19967;-75
2022/05/03 21:51:39;;;;;;;;;;;8.40;66.60;;;;;;6107240;23;20283;-76
2022/05/03 21:54:05;;;;;;;;;;;8.40;66.40;;;;;;6131528;23;19920;-74
2022/05/03 21:56:30;;;;;;;;;;;8.40;66.00;;;;;;6131949;23;19913;-75
2022/05/03 21:58:56;;;;;;;;;;;8.40;65.40;;;;;;6131817;23;20240;-74
2022/05/03 22:01:21;;;;;;;;;;;8.40;65.70;;;;;;6131736;23;19921;-74
2022/05/03 22:03:47;;;;;;;;;;;8.50;65.70;;;;;;6131887;23;19916;-74
2022/05/03 22:06:14;;;;;;;;;;;8.30;64.60;;;;;;6107411;23;19917;-75
2022/05/03 22:08:40;;;;;;;;;;;8.40;64.50;;;;;;6131726;23;19917;-74
2022/05/03 22:11:05;;;;;;;;;;;8.30;65.00;;;;;;6107056;23;19920;-74
2022/05/03 22:13:32;;;;;;;;;;;8.30;65.40;;;;;;6131655;23;19916;-74
2022/05/03 22:15:58;;;;;;;;;;;8.30;65.00;;;;;;6157724;23;19916;-73
2022/05/03 22:18:24;;;;;;;;;;;8.30;64.90;;;;;;6106888;23;19923;-74
2022/05/03 22:20:50;;;;;;;;;;;8.30;65.50;;;;;;6110307;23;19917;-71
2022/05/03 22:23:16;;;;;;;;;;;8.30;65.70;;;;;;6137252;23;19967;-71
2022/05/03 22:25:44;;;;;;;;;;;8.30;65.60;;;;;;6134195;23;19924;-74
2022/05/03 22:28:10;;;;;;;;;;;8.30;65.60;;;;;;6131392;23;19995;-74
2022/05/03 22:30:36;;;;;;;;;;;8.30;65.70;;;;;;6130390;23;19936;-72
2022/05/03 22:33:01;;;;;;;;;;;8.30;65.90;;;;;;6106760;23;19912;-74
2022/05/03 22:35:27;;;;;;;;;;;8.20;65.50;;;;;;6107111;23;19935;-75
2022/05/03 22:37:53;;;;;;;;;;;8.30;65.60;;;;;;6106341;23;19920;-75
2022/05/03 22:40:18;;;;;;;;;;;8.30;65.90;;;;;;6105595;23;19927;-73
2022/05/03 22:42:44;;;;;;;;;;;8.30;65.60;;;;;;6129859;23;20263;-76
2022/05/03 22:45:14;;;;;;;;;;;8.30;65.80;;;;;;6105226;23;19916;-75
2022/05/03 22:47:40;;;;;;;;;;;8.30;65.70;;;;;;6129978;23;19939;-74
2022/05/03 22:50:08;;;;;;;;;;;8.30;66.30;;;;;;6129474;23;19995;-75
2022/05/03 22:52:38;;;;;;;;;;;8.30;66.00;;;;;;6129560;23;20316;-76
2022/05/03 22:55:04;;;;;;;;;;;8.30;66.50;;;;;;6105182;23;19939;-74
2022/05/03 22:57:30;;;;;;;;;;;8.30;67.00;;;;;;6129572;23;19943;-75
2022/05/03 22:59:56;;;;;;;;;;;8.30;66.30;;;;;;6105204;23;20271;-74
2022/05/03 23:02:21;;;;;;;;;;;8.20;66.00;;;;;;6105017;23;19955;-73